Flaxcombe, Canada
Current Conditions -  °F | °C
As of 5:00 PM on Friday 31 Oct 2014 (Local Time) from CYKY Reporting Station
Broken Clouds Broken Clouds  
Wind Chill: 52°   Ceiling: 26000
Heat Index: 52°   Visibility: 15mi
Dew Point: 36°   Wind: 18mph
Humidity: 54%   Direction: 150°SSE
Pressure: 29.63"   Gusts: NA
Location:  51.47°N, 109.6°W
Report Text: CYKY 312300Z 15016KT 15SM FEW050 BKN260 11/02 A2963 RMK SC2CI3 SLP052 DENSITY ALT 2600FT
Loading
Personal Weather Stations






























Interactive Weather Map
Tropical Storm Tracking
New forecast layout! Learn more

10-Day Weather Forecast

Advertisements
Track Severe Weather on mobile